Terminal Aerodrome Forecast
Issued by NWS

Home | Current Version | Previous Version | Text Only | Print | Product List | Glossary On
Versions: 1 2 3 4 5 6 7 8 9 10 11 12 13 14 15 16
000
FTUS45 KABQ 311100 RRA
TAFFMN
TAF
KFMN 311151Z 3112/0112 10008KT P6SM FEW080 SCT110
     FM312000 25010G18KT P6SM SCT100
     FM312200 27012G20KT P6SM VCTS SCT080CB BKN110
     FM010100 33011KT P6SM BKN100
     FM010400 14005KT P6SM VCSH BKN080=

USA.gov is the U.S. government's official web portal to all federal, state and local government web resources and services.